Time;durP1;ratioP1;P1;durP2;ratioP2;P2;SDS_P1;SDS_P2;PMS_P1;PMS_P2;Temp;Humidity;BMP_temperature;BMP_pressure;BME280_temperature;BME280_humidity;BME280_pressure;Samples;Min_cycle;Max_cycle;Signal;HPM_P1;HPM_P2
2023/06/17 07:14:18;;;;;;;18.55;11.80;;;19.60;1.00;;;;;;6272434;22;20181;-87
2023/06/17 07:16:45;;;;;;;18.20;12.60;;;19.40;45.70;;;;;;6308135;22;20159;-94
2023/06/17 07:19:12;;;;;;;18.92;12.80;;;19.50;99.90;;;;;;6310764;22;20171;-92
2023/06/17 07:21:39;;;;;;;53.85;24.05;;;19.50;99.90;;;;;;6310073;22;20171;-93
2023/06/17 07:24:06;;;;;;;37.42;19.90;;;19.60;99.90;;;;;;6309632;22;20171;-92
2023/06/17 07:26:33;;;;;;;32.33;21.52;;;19.80;99.90;;;;;;6310244;22;20183;-91
2023/06/17 07:29:01;;;;;;;22.58;15.32;;;20.10;99.90;;;;;;6310252;22;20170;-93
2023/06/17 07:31:30;;;;;;;22.83;15.93;;;20.20;1.00;;;;;;6309827;22;20170;-92
2023/06/17 07:33:57;;;;;;;19.95;14.55;;;20.20;1.00;;;;;;6309669;22;20171;-91
2023/06/17 07:36:24;;;;;;;33.80;20.52;;;20.20;1.00;;;;;;6310024;22;20690;-92
2023/06/17 07:38:51;;;;;;;21.90;14.85;;;20.50;1.00;;;;;;6310130;22;20236;-92
2023/06/17 07:41:18;;;;;;;20.35;15.43;;;20.70;1.00;;;;;;6310286;22;20171;-95
2023/06/17 07:43:45;;;;;;;19.73;15.23;;;20.80;99.90;;;;;;6310653;22;20179;-90
2023/06/17 07:46:12;;;;;;;20.73;15.38;;;20.80;99.90;;;;;;6309854;22;20213;-93
2023/06/17 07:48:41;;;;;;;20.92;15.27;;;20.80;99.90;;;;;;6309455;22;20174;-94
2023/06/17 07:51:08;;;;;;;19.13;14.57;;;20.90;99.90;;;;;;6309806;22;20690;-93
2023/06/17 07:53:35;;;;;;;20.08;15.85;;;20.90;99.90;;;;;;6310122;22;20198;-92
2023/06/17 07:56:02;;;;;;;18.02;13.85;;;20.80;45.80;;;;;;6309669;22;20167;-93
2023/06/17 07:58:29;;;;;;;18.65;14.40;;;20.80;99.90;;;;;;6309135;22;20175;-94
2023/06/17 08:00:56;;;;;;;19.35;14.23;;;20.90;99.90;;;;;;6310431;22;20624;-94
2023/06/17 08:03:23;;;;;;;20.10;15.43;;;21.10;99.90;;;;;;6309842;22;20617;-93
2023/06/17 08:05:51;;;;;;;21.27;15.80;;;21.20;86.30;;;;;;6309648;22;20175;-93
2023/06/17 08:08:18;;;;;;;19.77;15.75;;;21.20;1.00;;;;;;6309834;22;20209;-93
2023/06/17 08:10:45;;;;;;;20.35;15.75;;;21.20;1.00;;;;;;6309403;22;20720;-94
2023/06/17 08:13:12;;;;;;;19.92;16.27;;;21.40;1.00;;;;;;6308784;22;20220;-94
2023/06/17 08:15:39;;;;;;;17.98;14.43;;;21.60;1.00;;;;;;6309306;22;20191;-93
2023/06/17 08:18:06;;;;;;;21.20;16.55;;;21.80;1.00;;;;;;6309446;22;20175;-94
2023/06/17 08:20:33;;;;;;;22.27;17.20;;;21.70;1.00;;;;;;6308138;22;20643;-93
2023/06/17 08:23:02;;;;;;;21.00;16.33;;;21.50;1.00;;;;;;6308518;22;20690;-94
2023/06/17 08:25:29;;;;;;;21.10;16.80;;;21.40;1.00;;;;;;6309460;22;20240;-92
2023/06/17 08:27:56;;;;;;;19.55;15.55;;;21.40;1.00;;;;;;6309122;22;20194;-92
2023/06/17 08:30:23;;;;;;;19.13;14.45;;;21.70;1.00;;;;;;6309808;22;20216;-93
2023/06/17 08:32:50;;;;;;;17.85;13.85;;;22.10;99.90;;;;;;6309581;22;20557;-93
2023/06/17 08:35:17;;;;;;;15.50;12.65;;;22.40;99.90;;;;;;6309441;22;20174;-93
2023/06/17 08:37:44;;;;;;;14.65;12.95;;;22.50;33.10;;;;;;6309559;22;20167;-92
2023/06/17 08:40:15;;;;;;;15.43;13.05;;;22.70;89.20;;;;;;6309209;22;20221;-93
2023/06/17 08:42:43;;;;;;;16.13;13.02;;;23.10;15.60;;;;;;6309833;22;20494;-93
2023/06/17 08:45:10;;;;;;;19.10;12.30;;;23.80;1.00;;;;;;6308991;22;20171;-94
2023/06/17 08:47:37;;;;;;;14.85;12.25;;;24.20;1.00;;;;;;6309332;22;20183;-93
2023/06/17 08:50:07;;;;;;;14.60;12.27;;;24.50;1.00;;;;;;6308872;22;20177;-93
2023/06/17 08:52:36;;;;;;;17.08;12.30;;;24.70;1.00;;;;;;6309248;22;20170;-92
2023/06/17 08:55:03;;;;;;;15.55;12.73;;;24.80;1.00;;;;;;6309157;22;20167;-95
2023/06/17 08:57:32;;;;;;;14.88;12.15;;;24.70;1.00;;;;;;6308707;22;20198;-94
2023/06/17 08:59:59;;;;;;;13.68;11.93;;;24.60;1.00;;;;;;6309348;22;20532;-93
2023/06/17 09:02:27;;;;;;;12.95;11.15;;;24.40;99.90;;;;;;6309146;22;20232;-93
2023/06/17 09:04:55;;;;;;;13.23;11.30;;;24.20;1.00;;;;;;6309084;22;20224;-94
2023/06/17 09:07:23;;;;;;;13.10;11.52;;;24.00;1.00;;;;;;6310214;22;20183;-94
2023/06/17 09:09:54;;;;;;;12.80;11.45;;;24.10;1.00;;;;;;6308543;22;20179;-93
2023/06/17 09:12:25;;;;;;;13.90;11.82;;;24.40;1.00;;;;;;6308788;22;20183;-94
2023/06/17 09:14:57;;;;;;;14.45;11.63;;;24.80;99.90;;;;;;6308437;22;20265;-94
2023/06/17 09:17:31;;;;;;;12.68;11.38;;;25.30;99.90;;;;;;6309145;22;20204;-95
2023/06/17 09:20:08;;;;;;;13.95;12.13;;;25.60;99.90;;;;;;6309959;22;20502;-95
2023/06/17 09:22:35;;;;;;;13.27;11.88;;;25.90;99.90;;;;;;6309649;22;20158;-94
2023/06/17 09:25:02;;;;;;;14.07;11.57;;;25.80;99.90;;;;;;6309679;22;20224;-96
2023/06/17 09:27:29;;;;;;;13.63;11.38;;;25.40;99.90;;;;;;6309868;22;20187;-94
2023/06/17 09:30:10;;;;;;;13.35;11.27;;;24.80;99.90;;;;;;6309496;22;20697;-96
2023/06/17 09:32:40;;;;;;;12.27;10.60;;;24.10;99.90;;;;;;6309214;22;20175;-95
2023/06/17 09:35:14;;;;;;;13.00;11.20;;;23.60;99.90;;;;;;6308629;22;20624;-94
2023/06/17 09:37:42;;;;;;;13.40;11.52;;;23.40;99.90;;;;;;6309391;22;20147;-95
2023/06/17 09:40:10;;;;;;;15.23;12.40;;;23.30;99.90;;;;;;6313572;22;20224;-96
2023/06/17 09:42:38;;;;;;;14.95;13.05;;;23.30;99.90;;;;;;6316705;22;20171;-95
2023/06/17 09:45:11;;;;;;;13.32;11.75;;;23.20;99.90;;;;;;6313088;22;20170;-96
2023/06/17 09:47:38;;;;;;;14.75;12.10;;;22.90;99.90;;;;;;6314314;22;20183;-95
2023/06/17 09:50:11;;;;;;;14.25;11.35;;;22.80;1.00;;;;;;6320258;22;20224;-96
2023/06/17 09:52:39;;;;;;;12.88;11.10;;;22.90;99.90;;;;;;6314536;22;20589;-96
2023/06/17 09:55:09;;;;;;;13.65;10.75;;;22.80;99.90;;;;;;6318200;22;20173;-94
2023/06/17 09:57:39;;;;;;;10.20;9.20;;;22.90;99.90;;;;;;6324081;22;20238;-95
2023/06/17 10:00:12;;;;;;;10.70;9.43;;;22.90;99.90;;;;;;6329438;22;20167;-96
2023/06/17 10:02:39;;;;;;;14.88;9.43;;;22.90;99.90;;;;;;6325636;22;20174;-95
2023/06/17 10:05:10;;;;;;;42.10;10.32;;;23.00;99.90;;;;;;6319048;22;20170;-94
2023/06/17 10:07:41;;;;;;;11.98;9.65;;;23.00;99.90;;;;;;6316499;22;20171;-95
2023/06/17 10:10:13;;;;;;;10.43;9.05;;;23.00;99.90;;;;;;6323656;22;20167;-96
2023/06/17 10:12:44;;;;;;;12.15;9.55;;;23.00;99.90;;;;;;6318672;22;20155;-96
2023/06/17 10:15:13;;;;;;;10.88;9.23;;;23.10;99.90;;;;;;6322979;22;20256;-96
2023/06/17 10:17:43;;;;;;;12.85;10.45;;;23.30;99.90;;;;;;6325310;22;20174;-95
2023/06/17 10:20:13;;;;;;;9.02;8.07;;;23.50;99.90;;;;;;6319146;22;20167;-96
2023/06/17 10:22:42;;;;;;;10.65;8.25;;;23.60;99.90;;;;;;6325908;22;20170;-96
2023/06/17 10:25:10;;;;;;;11.55;8.48;;;23.60;99.90;;;;;;6321998;22;20171;-96
2023/06/17 10:27:38;;;;;;;11.15;9.35;;;23.60;99.90;;;;;;6310352;22;20186;-94
2023/06/17 10:30:27;;;;;;;11.13;9.40;;;23.80;99.90;;;;;;6311161;22;20190;-94
2023/06/17 10:32:57;;;;;;;11.68;9.93;;;23.80;99.90;;;;;;6310803;22;20220;-95
2023/06/17 10:35:24;;;;;;;11.90;10.45;;;23.60;99.90;;;;;;6311274;22;20167;-94
2023/06/17 10:37:52;;;;;;;11.48;9.48;;;23.40;99.90;;;;;;6310729;22;20167;-95
2023/06/17 10:40:24;;;;;;;13.52;11.30;;;23.30;99.90;;;;;;6311502;22;20171;-94
2023/06/17 10:42:56;;;;;;;13.27;10.63;;;23.30;99.90;;;;;;6310648;22;20167;-94
2023/06/17 10:45:23;;;;;;;10.75;9.65;;;23.40;99.90;;;;;;6310702;22;20175;-95
2023/06/17 10:47:51;;;;;;;11.30;10.10;;;23.60;99.90;;;;;;6310110;22;20183;-94
2023/06/17 10:50:22;;;;;;;11.18;9.90;;;23.90;99.90;;;;;;6310037;22;20212;-95
2023/06/17 10:52:56;;;;;;;12.20;10.10;;;24.10;99.90;;;;;;6310242;22;20155;-94
2023/06/17 10:55:23;;;;;;;11.23;10.07;;;24.20;99.90;;;;;;6310386;22;20155;-95
2023/06/17 10:57:52;;;;;;;10.65;9.45;;;24.30;99.90;;;;;;6310165;22;20236;-96
2023/06/17 11:00:21;;;;;;;11.52;10.32;;;24.40;99.90;;;;;;6310853;22;20171;-96
2023/06/17 11:02:48;;;;;;;9.57;8.57;;;24.40;99.90;;;;;;6310265;22;20224;-95
2023/06/17 11:05:16;;;;;;;10.05;9.05;;;24.40;99.90;;;;;;6312471;22;20221;-96
2023/06/17 11:07:43;;;;;;;9.13;8.20;;;24.40;99.90;;;;;;6311241;22;20191;-96
2023/06/17 11:10:10;;;;;;;10.52;8.15;;;24.70;99.90;;;;;;6310235;22;20628;-95
2023/06/17 11:12:39;;;;;;;11.02;9.43;;;25.20;99.90;;;;;;6310687;22;20171;-96
2023/06/17 11:15:08;;;;;;;9.88;8.77;;;25.30;99.90;;;;;;6310379;22;20201;-96
2023/06/17 11:17:35;;;;;;;9.40;8.43;;;25.20;99.90;;;;;;6314122;22;20167;-96
2023/06/17 11:20:04;;;;;;;9.30;8.40;;;24.80;99.90;;;;;;6310371;22;20273;-96
2023/06/17 11:22:37;;;;;;;9.13;7.80;;;24.60;99.90;;;;;;6309827;22;20170;-96
2023/06/17 11:25:04;;;;;;;9.77;8.52;;;24.30;99.90;;;;;;6310968;22;20155;-95
2023/06/17 11:27:32;;;;;;;10.23;8.85;;;24.10;99.90;;;;;;6308779;22;20198;-96
2023/06/17 11:29:59;;;;;;;8.95;8.05;;;24.10;99.90;;;;;;6308827;22;20175;-95
2023/06/17 11:32:26;;;;;;;8.88;7.97;;;24.30;99.90;;;;;;6309831;22;20608;-95
2023/06/17 11:34:53;;;;;;;8.95;8.05;;;24.70;99.90;;;;;;6309428;22;20553;-96
2023/06/17 11:37:21;;;;;;;8.65;7.72;;;25.00;99.90;;;;;;6310153;22;20550;-95
2023/06/17 11:39:49;;;;;;;8.45;7.65;;;25.40;99.90;;;;;;6309494;22;20167;-95
2023/06/17 11:42:17;;;;;;;7.85;7.10;;;25.50;99.90;;;;;;6311546;22;20179;-96
2023/06/17 11:44:44;;;;;;;7.53;6.82;;;25.40;99.90;;;;;;6310091;22;20171;-96
2023/06/17 11:47:11;;;;;;;7.88;7.07;;;25.10;99.90;;;;;;6310690;22;20167;-96
2023/06/17 11:49:42;;;;;;;7.32;6.57;;;24.70;99.90;;;;;;6309754;22;20553;-96
2023/06/17 11:52:09;;;;;;;8.38;7.30;;;24.40;99.90;;;;;;6309955;22;20167;-95
2023/06/17 11:54:37;;;;;;;7.20;5.93;;;24.30;99.90;;;;;;6310597;22;20249;-96
2023/06/17 11:57:06;;;;;;;7.60;6.80;;;24.50;99.90;;;;;;6310847;22;20511;-96
2023/06/17 11:59:34;;;;;;;6.40;5.80;;;24.70;99.90;;;;;;6314489;22;20213;-95
2023/06/17 12:02:00;;;;;;;6.63;6.03;;;25.00;99.90;;;;;;6311640;22;20250;-96
2023/06/17 12:04:29;;;;;;;6.63;5.93;;;25.20;99.90;;;;;;6311225;22;20171;-96
2023/06/17 12:06:57;;;;;;;7.60;5.93;;;25.30;99.90;;;;;;6311126;22;20175;-96
2023/06/17 12:09:23;;;;;;;6.38;5.78;;;25.40;99.90;;;;;;6310378;22;20191;-96
2023/06/17 12:11:51;;;;;;;6.10;5.50;;;25.40;99.90;;;;;;6312840;22;20170;-96
2023/06/17 12:14:20;;;;;;;6.07;5.47;;;25.40;99.90;;;;;;6324300;22;20171;-96
2023/06/17 12:16:48;;;;;;;5.97;5.38;;;25.30;99.90;;;;;;6330920;22;20167;-96
2023/06/17 12:19:21;;;;;;;6.10;5.50;;;25.10;99.70;;;;;;6322711;22;20207;-96
2023/06/17 12:21:48;;;;;;;6.63;5.25;;;24.90;97.80;;;;;;6331909;22;20163;-96
2023/06/17 12:24:15;;;;;;;5.53;5.03;;;24.70;99.90;;;;;;6323852;22;20254;-95
2023/06/17 12:26:44;;;;;;;6.18;4.75;;;24.60;97.40;;;;;;6320079;22;20651;-96
2023/06/17 12:29:13;;;;;;;4.40;4.00;;;24.70;93.50;;;;;;6326670;22;20194;-96
2023/06/17 12:31:42;;;;;;;4.05;3.67;;;24.70;88.70;;;;;;6330467;22;20194;-96
2023/06/17 12:34:09;;;;;;;3.70;3.40;;;24.60;80.00;;;;;;6326978;22;20171;-96
2023/06/17 12:36:37;;;;;;;4.80;3.60;;;24.50;72.10;;;;;;6329450;22;20167;-96
2023/06/17 12:39:04;;;;;;;3.65;3.35;;;24.40;73.10;;;;;;6329964;22;20171;-96
2023/06/17 12:41:32;;;;;;;4.55;3.50;;;24.40;64.40;;;;;;6326492;22;20171;-96
2023/06/17 12:43:59;;;;;;;3.80;3.50;;;24.50;72.20;;;;;;6314661;22;20171;-96
2023/06/17 12:46:26;;;;;;;3.55;3.25;;;24.70;80.20;;;;;;6311053;22;20167;-96
2023/06/17 12:48:55;;;;;;;3.92;3.40;;;25.10;72.30;;;;;;6315038;22;20187;-96
2023/06/17 12:51:22;;;;;;;2.83;2.63;;;25.30;59.70;;;;;;6319666;22;20171;-96
2023/06/17 12:53:49;;;;;;;3.83;3.47;;;25.40;46.30;;;;;;6322260;22;20167;-96
2023/06/17 12:56:16;;;;;;;3.33;2.95;;;25.60;46.60;;;;;;6321563;22;20167;-96
2023/06/17 12:58:44;;;;;;;3.00;2.72;;;25.80;45.00;;;;;;6314683;22;20174;-96
2023/06/17 13:01:11;;;;;;;2.58;2.38;;;26.10;39.60;;;;;;6319088;22;20167;-96
2023/06/17 13:03:38;;;;;;;3.20;2.90;;;26.20;33.30;;;;;;6318442;22;20171;-96
2023/06/17 13:06:07;;;;;;;3.20;2.63;;;26.20;23.40;;;;;;6320461;22;20195;-96
2023/06/17 13:08:34;;;;;;;3.22;2.92;;;26.20;20.50;;;;;;6313902;22;20213;-96
2023/06/17 13:11:01;;;;;;;4.43;3.08;;;26.20;17.00;;;;;;6318051;22;20163;-95
2023/06/17 13:13:30;;;;;;;3.53;3.22;;;26.40;23.30;;;;;;6310583;22;20170;-95
2023/06/17 13:15:57;;;;;;;3.50;3.20;;;26.50;20.50;;;;;;6312883;22;20197;-95
2023/06/17 13:18:25;;;;;;;3.42;3.13;;;26.60;22.60;;;;;;6314118;22;20222;-96
2023/06/17 13:20:52;;;;;;;2.83;2.50;;;26.70;13.90;;;;;;6318791;22;20190;-96
2023/06/17 13:23:21;;;;;;;3.05;2.50;;;26.80;10.10;;;;;;6318207;22;20171;-96
2023/06/17 13:25:49;;;;;;;2.70;2.50;;;26.80;4.80;;;;;;6325498;22;20170;-96
2023/06/17 13:28:16;;;;;;;4.43;2.97;;;26.90;4.00;;;;;;6316544;22;20496;-96
2023/06/17 13:30:43;;;;;;;2.70;2.50;;;27.10;4.80;;;;;;6313835;22;20167;-96
2023/06/17 13:33:11;;;;;;;2.80;2.60;;;27.40;4.70;;;;;;6319454;22;20171;-96
2023/06/17 13:35:38;;;;;;;3.10;2.65;;;27.40;1.00;;;;;;6330853;22;20171;-96
2023/06/17 13:38:05;;;;;;;3.65;2.60;;;27.20;1.00;;;;;;6332949;22;20167;-96
2023/06/17 13:40:34;;;;;;;2.60;2.40;;;27.00;1.00;;;;;;6330239;22;20168;-96
2023/06/17 13:43:02;;;;;;;3.30;2.47;;;26.90;1.00;;;;;;6313755;22;20178;-96
2023/06/17 13:45:29;;;;;;;3.55;2.78;;;27.10;1.00;;;;;;6309508;22;20240;-95
2023/06/17 13:47:56;;;;;;;2.83;2.60;;;27.40;1.00;;;;;;6310168;22;20183;-96
2023/06/17 13:50:23;;;;;;;2.85;2.10;;;27.90;1.00;;;;;;6310040;22;20173;-96
2023/06/17 13:52:50;;;;;;;3.00;2.70;;;28.40;1.00;;;;;;6310765;22;20229;-96
2023/06/17 13:55:17;;;;;;;3.33;3.03;;;28.80;1.00;;;;;;6312351;22;20166;-96
2023/06/17 13:57:46;;;;;;;3.78;3.47;;;29.10;1.00;;;;;;6316418;22;20189;-96
2023/06/17 14:00:13;;;;;;;3.38;3.08;;;29.30;1.00;;;;;;6317722;22;20167;-96
2023/06/17 14:02:40;;;;;;;3.78;3.47;;;29.30;1.00;;;;;;6316921;22;20170;-96
2023/06/17 14:05:08;;;;;;;3.60;2.70;;;29.10;1.00;;;;;;6311080;22;20170;-96
2023/06/17 14:07:35;;;;;;;5.03;2.60;;;28.90;1.00;;;;;;6314145;22;20171;-96
2023/06/17 14:10:02;;;;;;;5.53;4.25;;;28.50;1.00;;;;;;6320824;22;20186;-95
2023/06/17 14:12:29;;;;;;;6.68;4.00;;;28.00;1.00;;;;;;6313744;22;20170;-95
2023/06/17 14:14:58;;;;;;;3.88;3.53;;;27.30;1.00;;;;;;6312145;22;20177;-95
2023/06/17 14:17:25;;;;;;;4.30;3.63;;;26.50;1.00;;;;;;6322520;22;20197;-96
2023/06/17 14:19:52;;;;;;;4.72;4.20;;;25.90;1.00;;;;;;6322721;22;20186;-96
2023/06/17 14:22:19;;;;;;;9.38;5.53;;;25.40;1.00;;;;;;6320922;22;20170;-96
2023/06/17 14:24:46;;;;;;;7.40;5.10;;;25.00;1.00;;;;;;6315057;22;20167;-96
2023/06/17 14:27:36;;;;;;;6.22;5.72;;;24.70;1.00;;;;;;6310243;22;20232;-95
2023/06/17 14:30:07;;;;;;;5.72;5.22;;;24.30;8.00;;;;;;6312499;22;20236;-96
2023/06/17 14:32:34;;;;;;;9.73;5.00;;;24.20;9.40;;;;;;6310777;22;20147;-95
2023/06/17 14:35:01;;;;;;;4.90;4.50;;;24.10;29.00;;;;;;6309253;22;20167;-95
2023/06/17 14:37:29;;;;;;;3.90;3.45;;;23.90;10.20;;;;;;6311104;22;20175;-96
2023/06/17 14:39:56;;;;;;;4.80;3.50;;;23.80;6.50;;;;;;6313694;22;20179;-96
2023/06/17 14:42:23;;;;;;;5.20;4.70;;;23.70;10.50;;;;;;6312205;22;20197;-96
2023/06/17 14:44:50;;;;;;;8.18;5.07;;;23.60;12.00;;;;;;6311311;22;20178;-94
2023/06/17 14:47:18;;;;;;;9.43;4.40;;;23.60;17.20;;;;;;6311310;22;20633;-95
2023/06/17 14:49:45;;;;;;;5.57;4.80;;;23.30;18.00;;;;;;6313709;22;20213;-96
2023/06/17 14:52:13;;;;;;;6.30;4.32;;;23.00;24.60;;;;;;6321034;22;20187;-96
2023/06/17 14:54:40;;;;;;;5.07;4.57;;;22.80;27.30;;;;;;6318400;22;20179;-96
2023/06/17 14:57:07;;;;;;;5.90;4.40;;;22.70;37.90;;;;;;6313998;22;20197;-96
2023/06/17 14:59:35;;;;;;;5.13;4.30;;;22.60;60.50;;;;;;6314529;22;20174;-95
2023/06/17 15:02:02;;;;;;;5.20;4.70;;;22.40;84.20;;;;;;6310630;22;20178;-96
2023/06/17 15:04:30;;;;;;;6.10;4.68;;;22.20;94.40;;;;;;6310220;22;20215;-95
2023/06/17 15:06:57;;;;;;;6.05;4.78;;;22.10;99.90;;;;;;6311529;22;20167;-95
2023/06/17 15:09:26;;;;;;;11.77;8.10;;;22.00;99.90;;;;;;6312330;22;20193;-96
2023/06/17 15:11:54;;;;;;;7.95;5.43;;;21.90;99.90;;;;;;6312537;22;20220;-96
2023/06/17 15:14:21;;;;;;;5.03;4.53;;;21.90;99.90;;;;;;6310986;22;20214;-96
2023/06/17 15:16:49;;;;;;;6.03;5.05;;;21.90;99.90;;;;;;6312199;22;20167;-96
2023/06/17 15:19:17;;;;;;;6.47;4.60;;;21.80;99.90;;;;;;6311991;22;20254;-96
2023/06/17 15:21:45;;;;;;;10.82;9.80;;;21.90;99.90;;;;;;6311750;22;20221;-95
2023/06/17 15:24:13;;;;;;;15.27;12.07;;;22.00;99.90;;;;;;6311576;22;20228;-95
2023/06/17 15:26:40;;;;;;;12.15;10.15;;;22.10;99.90;;;;;;6311610;22;20232;-96
2023/06/17 15:29:07;;;;;;;11.45;9.68;;;22.10;99.90;;;;;;6312362;22;20199;-95
2023/06/17 15:31:35;;;;;;;13.00;8.30;;;22.20;99.90;;;;;;6310494;22;20216;-95
2023/06/17 15:34:02;;;;;;;8.35;6.38;;;22.20;99.90;;;;;;6310746;22;20505;-95
2023/06/17 15:36:30;;;;;;;6.93;6.20;;;22.10;99.90;;;;;;6310528;22;20171;-94
2023/06/17 15:39:01;;;;;;;7.78;5.90;;;21.80;99.90;;;;;;6310880;22;20171;-95
2023/06/17 15:41:28;;;;;;;6.57;5.97;;;21.60;1.00;;;;;;6310607;22;20151;-96
2023/06/17 15:43:57;;;;;;;6.60;5.90;;;21.40;1.00;;;;;;6313836;22;20166;-96
2023/06/17 15:46:24;;;;;;;7.60;6.40;;;21.40;1.00;;;;;;6325788;22;20209;-96
2023/06/17 15:48:51;;;;;;;8.73;6.38;;;21.40;1.00;;;;;;6329502;22;20194;-96
2023/06/17 15:51:18;;;;;;;10.27;7.30;;;21.40;10.50;;;;;;6334754;22;20181;-96
2023/06/17 15:56:22;;;;;;;9.73;8.15;;;21.80;99.90;;;;;;6311737;22;20194;-95
2023/06/17 15:58:50;;;;;;;6.47;5.80;;;22.00;99.90;;;;;;6336748;22;20147;-96
2023/06/17 16:03:52;;;;;;;10.57;7.88;;;22.10;99.90;;;;;;6334249;22;20197;-96
2023/06/17 16:08:55;;;;;;;11.73;6.80;;;22.10;63.00;;;;;;6306656;22;20192;-86
2023/06/17 16:26:55;;;;;;;7.18;6.47;;;22.40;99.90;;;;;;6327302;22;20257;-96
2023/06/17 16:34:28;;;;;;;6.75;6.15;;;22.40;99.90;;;;;;6325991;22;20198;-96
2023/06/17 16:39:51;;;;;;;9.25;6.18;;;22.20;99.90;;;;;;6326980;22;20874;-96
2023/06/17 16:42:20;;;;;;;6.13;5.53;;;22.10;99.90;;;;;;6330708;22;20228;-96
2023/06/17 16:44:47;;;;;;;6.47;5.50;;;21.90;99.90;;;;;;6333526;22;20188;-96
2023/06/17 16:47:14;;;;;;;5.90;5.40;;;21.60;1.00;;;;;;6334629;22;20167;-96
2023/06/17 16:49:41;;;;;;;6.30;5.72;;;21.40;1.00;;;;;;6335718;22;20171;-96
2023/06/17 16:52:09;;;;;;;6.43;5.82;;;21.20;1.00;;;;;;6329938;22;20199;-96
2023/06/17 16:54:36;;;;;;;7.13;6.43;;;21.00;1.00;;;;;;6331847;22;20171;-96
2023/06/17 16:57:04;;;;;;;6.60;6.00;;;20.90;62.90;;;;;;6331645;22;20169;-96
2023/06/17 16:59:32;;;;;;;8.15;5.97;;;20.70;99.90;;;;;;6327862;22;20198;-96
2023/06/17 17:01:59;;;;;;;7.07;6.15;;;20.60;99.90;;;;;;6324663;22;20171;-96
2023/06/17 17:04:27;;;;;;;6.78;6.10;;;20.50;99.90;;;;;;6322296;22;20171;-95
2023/06/17 17:06:54;;;;;;;6.85;6.25;;;20.40;1.00;;;;;;6319887;22;20177;-96
2023/06/17 17:09:21;;;;;;;6.80;6.10;;;20.20;1.00;;;;;;6316311;22;20221;-96
2023/06/17 17:11:48;;;;;;;6.05;5.45;;;20.10;1.00;;;;;;6314509;22;20177;-96
2023/06/17 17:14:15;;;;;;;7.00;6.28;;;20.00;1.00;;;;;;6313249;22;20171;-96
2023/06/17 17:16:43;;;;;;;7.28;6.60;;;20.00;1.00;;;;;;6311792;22;20236;-96
2023/06/17 17:19:10;;;;;;;8.45;6.60;;;19.90;1.00;;;;;;6310559;22;20163;-96
2023/06/17 17:21:38;;;;;;;8.45;6.60;;;19.80;1.00;;;;;;6310792;22;20205;-96
2023/06/17 17:24:05;;;;;;;6.85;6.10;;;19.70;1.00;;;;;;6310101;22;20629;-96
2023/06/17 17:26:32;;;;;;;6.40;5.60;;;19.70;1.00;;;;;;6309413;22;20224;-95
2023/06/17 17:28:59;;;;;;;6.28;5.68;;;19.60;1.00;;;;;;6309332;22;20186;-96
2023/06/17 17:31:26;;;;;;;7.65;5.68;;;19.50;1.00;;;;;;6308713;22;20171;-96
2023/06/17 17:33:55;;;;;;;6.25;5.25;;;19.50;1.00;;;;;;6309064;22;20162;-95
2023/06/17 17:36:22;;;;;;;6.20;5.60;;;19.50;1.00;;;;;;6309540;22;20181;-96
2023/06/17 17:38:49;;;;;;;11.32;5.95;;;19.40;1.00;;;;;;6309278;22;20236;-94
2023/06/17 17:41:16;;;;;;;6.35;5.60;;;19.40;1.00;;;;;;6308935;22;20217;-95
2023/06/17 17:43:43;;;;;;;6.30;5.03;;;19.40;1.00;;;;;;6308789;22;20175;-95
2023/06/17 17:46:11;;;;;;;7.95;5.45;;;19.30;1.00;;;;;;6309101;22;20228;-94
2023/06/17 17:48:38;;;;;;;5.90;5.30;;;19.20;1.00;;;;;;6309506;22;20249;-95
2023/06/17 17:51:06;;;;;;;6.60;5.28;;;19.10;1.00;;;;;;6309193;22;20216;-94
2023/06/17 17:53:33;;;;;;;5.63;5.13;;;19.10;1.00;;;;;;6308564;22;20195;-94
2023/06/17 17:56:00;;;;;;;5.90;5.30;;;19.00;1.00;;;;;;6308754;22;20690;-94
2023/06/17 17:58:27;;;;;;;5.65;5.03;;;19.00;1.00;;;;;;6308655;22;20693;-94
2023/06/17 18:00:55;;;;;;;5.88;5.38;;;19.00;1.00;;;;;;6309325;22;20536;-95
2023/06/17 18:03:22;;;;;;;5.85;5.10;;;19.00;1.00;;;;;;6308990;22;20497;-94
2023/06/17 18:05:49;;;;;;;6.30;5.70;;;18.90;1.00;;;;;;6309069;22;20175;-93
2023/06/17 18:08:17;;;;;;;6.07;5.47;;;19.00;1.00;;;;;;6309148;22;20170;-94
2023/06/17 18:10:44;;;;;;;6.10;5.50;;;18.90;1.00;;;;;;6308818;22;20191;-93
2023/06/17 18:13:11;;;;;;;6.60;5.47;;;18.80;1.00;;;;;;6309194;22;20174;-93
2023/06/17 18:15:38;;;;;;;5.80;5.30;;;18.60;6.10;;;;;;6308714;22;20638;-93
2023/06/17 18:18:05;;;;;;;5.80;5.20;;;18.60;14.50;;;;;;6308831;22;20170;-94
2023/06/17 18:20:32;;;;;;;8.38;5.55;;;18.50;90.40;;;;;;6308508;22;20172;-93
2023/06/17 18:22:59;;;;;;;6.30;5.47;;;18.50;99.90;;;;;;6308912;22;20171;-94
2023/06/17 18:25:27;;;;;;;6.35;5.70;;;18.50;99.90;;;;;;6308757;22;20204;-94
2023/06/17 18:27:54;;;;;;;7.72;5.95;;;18.60;99.90;;;;;;6309015;22;20225;-94
2023/06/17 18:30:21;;;;;;;5.68;5.10;;;18.50;97.20;;;;;;6308795;22;20187;-94
2023/06/17 18:32:48;;;;;;;7.40;5.30;;;18.50;1.00;;;;;;6308606;22;20629;-93
2023/06/17 18:35:15;;;;;;;7.32;5.35;;;18.50;1.00;;;;;;6308659;22;20625;-93
2023/06/17 18:37:42;;;;;;;7.45;5.40;;;18.40;27.40;;;;;;6308928;22;20547;-94
2023/06/17 18:40:10;;;;;;;8.48;5.32;;;18.30;86.30;;;;;;6309095;22;20166;-93
2023/06/17 18:42:39;;;;;;;7.15;5.35;;;18.20;99.90;;;;;;6309050;22;20608;-94
2023/06/17 18:45:08;;;;;;;9.63;5.60;;;18.10;99.90;;;;;;6310579;22;20171;-93
2023/06/17 18:47:36;;;;;;;9.52;6.60;;;18.00;99.90;;;;;;6311112;22;20176;-94
2023/06/17 18:50:03;;;;;;;8.38;6.75;;;17.80;99.90;;;;;;6310461;22;20213;-93
2023/06/17 18:52:30;;;;;;;9.73;7.28;;;17.70;1.00;;;;;;6310573;22;20195;-93
2023/06/17 18:54:57;;;;;;;7.38;6.30;;;17.60;1.00;;;;;;6310944;22;20171;-93
2023/06/17 18:57:24;;;;;;;8.32;6.82;;;17.60;1.00;;;;;;6310392;22;20607;-92
2023/06/17 18:59:53;;;;;;;7.47;6.68;;;17.50;1.00;;;;;;6310982;22;20167;-94
2023/06/17 19:02:20;;;;;;;7.00;6.28;;;17.40;1.00;;;;;;6310623;22;20696;-93
2023/06/17 19:04:47;;;;;;;7.72;7.03;;;17.40;1.00;;;;;;6310052;22;20170;-92
2023/06/17 19:07:14;;;;;;;7.47;6.78;;;17.30;1.00;;;;;;6310747;22;20172;-93
2023/06/17 19:09:41;;;;;;;8.20;7.30;;;17.30;45.70;;;;;;6310131;22;20725;-93
2023/06/17 19:12:09;;;;;;;7.78;6.93;;;17.20;99.90;;;;;;6310606;22;20174;-93
2023/06/17 19:14:36;;;;;;;7.85;7.05;;;17.20;99.90;;;;;;6310416;22;20171;-93
2023/06/17 19:17:05;;;;;;;9.68;7.80;;;17.10;99.90;;;;;;6310955;22;20284;-92
2023/06/17 19:19:31;;;;;;;10.20;7.75;;;17.00;1.00;;;;;;6310405;22;20240;-92
2023/06/17 19:21:58;;;;;;;8.70;7.90;;;17.00;1.00;;;;;;6310374;22;20171;-93
2023/06/17 19:24:25;;;;;;;10.52;8.82;;;16.90;1.00;;;;;;6310617;22;20224;-93
2023/06/17 19:26:52;;;;;;;9.82;8.82;;;17.00;1.00;;;;;;6310459;22;20237;-93
2023/06/17 19:29:19;;;;;;;10.07;8.93;;;16.90;1.00;;;;;;6310143;22;20160;-93
2023/06/17 19:31:46;;;;;;;10.07;9.05;;;16.90;99.90;;;;;;6309967;22;20167;-93
2023/06/17 19:34:15;;;;;;;10.68;9.57;;;16.80;99.90;;;;;;6310147;22;20171;-91
2023/06/17 19:36:41;;;;;;;10.73;8.98;;;16.70;99.90;;;;;;6309979;22;20167;-92
2023/06/17 19:39:08;;;;;;;9.88;8.55;;;16.70;99.90;;;;;;6310266;22;20167;-92
2023/06/17 19:41:35;;;;;;;10.27;9.30;;;16.60;1.00;;;;;;6310365;22;20613;-92
2023/06/17 19:44:04;;;;;;;12.07;10.55;;;16.60;1.00;;;;;;6310513;22;20232;-92
2023/06/17 19:46:31;;;;;;;11.88;10.68;;;16.60;1.00;;;;;;6310127;22;20170;-91
2023/06/17 19:48:58;;;;;;;12.85;11.45;;;16.50;41.60;;;;;;6309554;22;20178;-92
2023/06/17 19:51:27;;;;;;;18.83;12.70;;;16.50;99.90;;;;;;6309711;22;20190;-92
2023/06/17 19:53:54;;;;;;;15.98;11.95;;;16.40;99.90;;;;;;6310137;22;20159;-91
2023/06/17 19:56:21;;;;;;;13.20;11.45;;;16.40;99.90;;;;;;6309518;22;20189;-92
2023/06/17 19:58:48;;;;;;;13.27;11.45;;;16.30;1.00;;;;;;6309676;22;20194;-93
2023/06/17 20:01:15;;;;;;;13.63;12.23;;;16.30;1.00;;;;;;6310106;22;20242;-92
2023/06/17 20:03:42;;;;;;;12.35;10.88;;;16.20;1.00;;;;;;6309382;22;20705;-91
2023/06/17 20:06:09;;;;;;;12.68;11.35;;;16.20;1.00;;;;;;6310039;22;20220;-91
2023/06/17 20:08:37;;;;;;;14.93;11.98;;;16.10;84.80;;;;;;6309485;22;20698;-92
2023/06/17 20:11:05;;;;;;;12.60;10.52;;;16.10;99.90;;;;;;6310004;22;20241;-92
2023/06/17 20:13:31;;;;;;;11.30;9.57;;;16.00;99.90;;;;;;6309758;22;20182;-92
2023/06/17 20:15:58;;;;;;;11.77;9.32;;;16.00;99.90;;;;;;6310149;22;20167;-92
2023/06/17 20:18:25;;;;;;;13.57;9.95;;;16.00;96.80;;;;;;6309963;22;20231;-91
2023/06/17 20:20:52;;;;;;;14.07;9.50;;;15.90;17.00;;;;;;6310014;22;20248;-92
2023/06/17 20:23:19;;;;;;;15.15;10.93;;;15.80;1.00;;;;;;6309999;22;20174;-91
2023/06/17 20:25:48;;;;;;;15.30;13.35;;;15.70;1.00;;;;;;6309428;22;20220;-91
2023/06/17 20:28:15;;;;;;;12.50;9.63;;;15.70;99.90;;;;;;6309647;22;20173;-91
2023/06/17 20:30:42;;;;;;;11.60;9.02;;;15.60;1.00;;;;;;6309845;22;20186;-92